Terminal Aerodrome Forecast
Issued by NWS Billings, MT

Home | Current Version | Previous Version | Text Only | Print | Product List | Glossary On
Versions: 1 2 3 4 5 6 7 8 9 10 11 12 13 14 15 16 17 18 19 20 21 22 23 24
000
FTUS45 KBYZ 200539
TAFMLS
TAF
KMLS 200539Z 2006/2106 18006KT P6SM SCT100
     FM201000 20005KT P6SM VCSH SCT080 BKN100 WS015/30042KT
     FM201600 31012KT P6SM VCSH SCT080 BKN100
     FM202200 32008KT P6SM FEW080 BKN100=

USA.gov is the U.S. government's official web portal to all federal, state and local government web resources and services.